Time;durP1;ratioP1;P1;durP2;ratioP2;P2;SDS_P1;SDS_P2;PMS_P1;PMS_P2;Temp;Humidity;BMP_temperature;BMP_pressure;BME280_temperature;BME280_humidity;BME280_pressure;Samples;Min_cycle;Max_cycle;Signal;HPM_P1;HPM_P2
2021/12/22 00:02:20;;;;;;;;;59.75;50.50;;;;;2.55;66.49;101773.34;5075626;28;45427;-54
2021/12/22 00:04:48;;;;;;;;;68.50;54.25;;;;;2.52;66.78;101773.38;5055405;28;45648;-54
2021/12/22 00:07:15;;;;;;;;;69.25;53.25;;;;;2.43;66.55;101778.66;5075636;28;45296;-49
2021/12/22 00:09:41;;;;;;;;;62.75;51.25;;;;;2.31;66.44;101777.81;5073235;28;45411;-55
2021/12/22 00:12:09;;;;;;;;;70.75;56.50;;;;;2.23;66.63;101787.47;5052620;28;45426;-53
2021/12/22 00:14:34;;;;;;;;;59.50;42.75;;;;;2.17;67.12;101771.72;5075275;28;46027;-54
2021/12/22 00:17:00;;;;;;;;;54.75;46.50;;;;;2.22;67.41;101775.25;5075780;28;45376;-54
2021/12/22 00:19:25;;;;;;;;;52.00;48.50;;;;;2.23;66.95;101779.59;5075379;28;45226;-53
2021/12/22 00:21:50;;;;;;;;;56.00;48.75;;;;;2.23;67.42;101773.47;5055284;28;45254;-56
2021/12/22 00:24:16;;;;;;;;;61.00;45.25;;;;;2.14;66.96;101771.75;5075202;28;45182;-51
2021/12/22 00:26:41;;;;;;;;;55.50;46.50;;;;;2.11;67.32;101763.03;5075033;28;45276;-57
2021/12/22 00:29:08;;;;;;;;;49.75;43.00;;;;;2.09;67.27;101763.03;5075623;28;45768;-57
2021/12/22 00:31:41;;;;;;;;;47.00;40.00;;;;;2.06;67.81;101765.63;5075498;28;45560;-56
2021/12/22 00:34:15;;;;;;;;;43.00;39.25;;;;;2.11;66.90;101756.03;5073016;28;46375;-57
2021/12/22 00:36:41;;;;;;;;;46.25;43.25;;;;;2.13;66.84;101767.38;5072612;28;45338;-58
2021/12/22 00:39:07;;;;;;;;;49.00;43.50;;;;;2.09;66.89;101757.78;5075495;28;45330;-58
2021/12/22 00:41:33;;;;;;;;;51.75;40.50;;;;;1.96;66.81;101766.56;5077278;28;45528;-53
2021/12/22 00:43:58;;;;;;;;;54.25;43.50;;;;;1.89;66.97;101767.44;5078693;28;46192;-59
2021/12/22 00:46:23;;;;;;;;;49.50;41.00;;;;;1.88;67.51;101763.94;5078677;28;45326;-54
2021/12/22 00:48:49;;;;;;;;;48.00;38.00;;;;;1.81;68.04;101761.31;5078818;28;45567;-58
2021/12/22 00:51:14;;;;;;;;;41.25;36.00;;;;;1.80;67.98;101764.81;5052241;28;45529;-56
2021/12/22 00:53:40;;;;;;;;;52.25;39.50;;;;;1.75;68.00;101762.19;5078352;28;45397;-51
2021/12/22 00:56:07;;;;;;;;;47.25;38.25;;;;;1.71;68.35;101758.72;5078527;27;45556;-58
2021/12/22 00:58:33;;;;;;;;;51.50;43.75;;;;;1.73;68.66;101759.59;5079123;28;45507;-53
2021/12/22 01:00:59;;;;;;;;;56.50;45.75;;;;;1.69;68.44;101747.38;5078902;28;45557;-60
2021/12/22 01:03:26;;;;;;;;;52.50;44.50;;;;;1.73;68.67;101753.47;5058086;28;46328;-55
2021/12/22 01:05:51;;;;;;;;;58.00;46.75;;;;;1.76;68.56;101764.81;5078355;28;45189;-54
2021/12/22 01:08:17;;;;;;;;;66.50;41.25;;;;;1.73;68.15;101764.84;5078562;28;45258;-53
2021/12/22 01:10:43;;;;;;;;;43.25;42.50;;;;;1.75;68.04;101763.06;5078691;27;45209;-54
2021/12/22 01:13:08;;;;;;;;;52.75;45.00;;;;;1.78;68.18;101764.81;5078174;28;45383;-53
2021/12/22 01:15:35;;;;;;;;;47.75;43.00;;;;;1.77;68.56;101763.94;5078411;28;45840;-51
2021/12/22 01:18:09;;;;;;;;;52.00;46.00;;;;;1.72;68.77;101763.09;5078503;28;45375;-54
2021/12/22 01:20:50;;;;;;;;;52.50;44.50;;;;;1.69;68.09;101773.59;5078221;28;45525;-57
2021/12/22 01:23:16;;;;;;;;;47.00;36.75;;;;;1.74;68.35;101765.69;5075520;28;46044;-55
2021/12/22 01:25:44;;;;;;;;;47.25;34.50;;;;;1.71;68.10;101763.97;5075326;28;45254;-57
2021/12/22 01:28:11;;;;;;;;;46.00;31.00;;;;;1.63;68.11;101747.34;5077939;28;45450;-53
2021/12/22 01:30:42;;;;;;;;;42.50;42.50;;;;;1.65;68.75;101758.72;5078318;28;45397;-52
2021/12/22 01:33:08;;;;;;;;;38.75;34.75;;;;;1.63;68.70;101747.34;5077964;28;46079;-58
2021/12/22 01:35:34;;;;;;;;;49.25;39.00;;;;;1.68;68.21;101752.56;5068448;28;45248;-56
2021/12/22 01:38:01;;;;;;;;;45.00;35.00;;;;;1.66;69.21;101747.34;5078022;28;45391;-55
2021/12/22 01:40:27;;;;;;;;;41.00;38.00;;;;;1.70;68.77;101754.34;5078091;28;45513;-56
2021/12/22 01:42:56;;;;;;;;;58.25;43.75;;;;;1.73;68.71;101745.59;5077823;27;45363;-56
2021/12/22 01:45:31;;;;;;;;;42.50;42.50;;;;;1.71;68.35;101750.84;5075627;28;45262;-52
2021/12/22 01:50:49;;;;;;;;;44.75;40.50;;;;;1.74;68.77;101750.84;5078083;28;45421;-60
2021/12/22 01:53:20;;;;;;;;;43.25;30.50;;;;;1.73;69.01;101749.09;5077980;28;45491;-56
2021/12/22 01:55:59;;;;;;;;;55.25;42.00;;;;;1.72;69.02;101747.34;5077852;28;45724;-57
2021/12/22 01:58:39;;;;;;;;;48.00;37.00;;;;;1.67;68.78;101743.84;5075517;28;45394;-53
2021/12/22 02:01:06;;;;;;;;;57.50;44.50;;;;;1.75;68.66;101749.97;5075734;28;45441;-56
2021/12/22 02:03:33;;;;;;;;;45.00;43.75;;;;;1.83;68.74;101754.34;5076181;28;46712;-55
2021/12/22 02:05:58;;;;;;;;;39.25;32.50;;;;;1.80;68.44;101747.31;5075907;28;45416;-51
2021/12/22 02:08:23;;;;;;;;;39.25;34.50;;;;;1.71;68.26;101742.97;5077731;28;45703;-52
2021/12/22 02:10:49;;;;;;;;;56.50;39.00;;;;;1.65;68.71;101745.59;5077681;28;45365;-53
2021/12/22 02:13:22;;;;;;;;;48.25;35.00;;;;;1.62;68.63;101742.13;5077414;28;46391;-58
2021/12/22 02:15:48;;;;;;;;;44.00;33.50;;;;;1.48;68.59;101747.38;5075474;28;45453;-57
2021/12/22 02:18:18;;;;;;;;;37.50;35.00;;;;;1.48;68.88;101748.25;5077428;28;45537;-56
2021/12/22 02:20:46;;;;;;;;;43.25;32.00;;;;;1.49;69.09;101738.63;5075236;28;45184;-53
2021/12/22 02:23:11;;;;;;;;;44.75;31.25;;;;;1.50;69.40;101743.00;5077140;28;46165;-57
2021/12/22 02:25:44;;;;;;;;;45.50;36.50;;;;;1.43;69.18;101743.84;5075423;28;45497;-56
2021/12/22 02:28:16;;;;;;;;;39.75;33.50;;;;;1.41;69.52;101741.22;5075638;28;45565;-53
2021/12/22 02:30:42;;;;;;;;;41.25;34.50;;;;;1.36;69.86;101747.38;5074939;28;45615;-59
2021/12/22 02:33:19;;;;;;;;;36.50;33.75;;;;;1.39;69.79;101743.00;5077514;28;46139;-54
2021/12/22 02:35:53;;;;;;;;;41.25;32.75;;;;;1.41;68.96;101756.97;5074767;28;45293;-57
2021/12/22 02:38:19;;;;;;;;;44.50;34.50;;;;;1.35;69.62;101741.25;5059030;28;45265;-52
2021/12/22 02:40:50;;;;;;;;;42.50;37.25;;;;;1.21;70.30;101729.91;5058947;28;45402;-54
2021/12/22 02:43:20;;;;;;;;;46.50;36.75;;;;;1.28;69.91;101746.47;5067037;28;45630;-54
2021/12/22 02:45:47;;;;;;;;;42.00;33.75;;;;;1.31;69.84;101736.03;5057781;28;45275;-56
2021/12/22 02:48:13;;;;;;;;;40.50;34.00;;;;;1.32;69.52;101735.16;5077116;28;45702;-55
2021/12/22 02:50:40;;;;;;;;;43.75;38.50;;;;;1.29;70.04;101736.00;5077517;28;45520;-53
2021/12/22 02:53:10;;;;;;;;;41.00;31.50;;;;;1.34;70.00;101734.25;5076992;28;45510;-55
2021/12/22 02:55:53;;;;;;;;;42.75;37.25;;;;;1.38;69.50;101740.38;5050474;28;45453;-55
2021/12/22 03:06:36;;;;;;;;;38.00;28.00;;;;;1.29;69.79;101727.25;5075305;28;45404;-54
2021/12/22 03:09:21;;;;;;;;;36.75;33.50;;;;;1.37;69.63;101744.75;5058254;28;45406;-59
2021/12/22 03:11:47;;;;;;;;;48.25;32.50;;;;;1.36;68.89;101740.38;5074603;28;45355;-56
2021/12/22 03:14:14;;;;;;;;;41.00;36.00;;;;;1.34;69.81;101738.63;5076283;28;46286;-56
2021/12/22 03:16:43;;;;;;;;;48.75;44.50;;;;;1.35;69.27;101740.38;5058313;28;45268;-54
2021/12/22 03:19:10;;;;;;;;;46.25;38.00;;;;;1.30;69.80;101726.38;5076688;28;45237;-51
2021/12/22 03:21:37;;;;;;;;;57.25;45.00;;;;;1.35;69.54;101724.66;5076719;28;45441;-53
2021/12/22 03:24:03;;;;;;;;;48.25;31.25;;;;;1.36;69.93;101724.66;5055316;28;46872;-57
2021/12/22 03:26:29;;;;;;;;;41.75;33.00;;;;;1.42;69.73;101729.00;5055312;28;46314;-55
2021/12/22 03:28:55;;;;;;;;;44.50;37.00;;;;;1.45;69.65;101724.66;5057522;28;45551;-57
2021/12/22 03:31:21;;;;;;;;;45.25;35.75;;;;;1.55;68.99;101729.88;5076512;28;45416;-55
2021/12/22 03:33:47;;;;;;;;;50.50;44.00;;;;;1.52;69.18;101728.13;5076214;28;45982;-55
2021/12/22 03:36:12;;;;;;;;;38.75;33.00;;;;;1.50;69.66;101727.25;5066199;28;45496;-56
2021/12/22 03:38:38;;;;;;;;;42.75;28.25;;;;;1.55;69.61;101728.13;5076356;28;45452;-55
2021/12/22 03:41:06;;;;;;;;;40.00;33.25;;;;;1.61;68.39;101728.13;5076317;28;45678;-54
2021/12/22 03:43:32;;;;;;;;;55.50;40.00;;;;;1.61;69.03;101724.63;5076002;28;45373;-55
2021/12/22 03:45:57;;;;;;;;;35.75;34.50;;;;;1.64;68.79;101717.63;5052144;28;45551;-54
2021/12/22 03:48:24;;;;;;;;;49.50;36.00;;;;;1.75;68.92;101726.34;5074673;28;45412;-55
2021/12/22 03:50:51;;;;;;;;;50.75;42.25;;;;;1.77;68.56;101719.34;5076008;28;45636;-56
2021/12/22 03:53:17;;;;;;;;;39.00;33.00;;;;;1.83;68.19;101722.88;5056867;28;46201;-55
2021/12/22 03:55:42;;;;;;;;;41.50;33.75;;;;;1.89;67.88;101738.56;5075667;28;45381;-51
2021/12/22 03:58:08;;;;;;;;;49.25;32.25;;;;;1.77;68.16;101723.72;5076199;28;45337;-57
2021/12/22 04:00:36;;;;;;;;;42.75;35.50;;;;;1.82;67.84;101732.44;5075848;28;45295;-54
2021/12/22 04:03:03;;;;;;;;;50.00;38.00;;;;;1.88;67.76;101728.97;5075717;28;46293;-53
2021/12/22 04:05:29;;;;;;;;;51.75;39.75;;;;;1.94;67.58;101726.31;5075778;28;46048;-56
2021/12/22 04:07:55;;;;;;;;;44.75;36.75;;;;;1.95;67.98;101726.34;5075274;28;45465;-55
2021/12/22 04:10:22;;;;;;;;;44.00;37.25;;;;;1.91;68.06;101716.69;5075376;28;45373;-53
2021/12/22 04:12:54;;;;;;;;;58.75;37.50;;;;;1.94;68.63;101715.81;5075568;28;46245;-56
2021/12/22 04:15:21;;;;;;;;;50.75;33.75;;;;;2.00;68.16;101710.56;5075484;28;45337;-55
2021/12/22 04:17:47;;;;;;;;;32.25;29.00;;;;;2.02;67.93;101714.06;5065663;28;45358;-60
2021/12/22 04:20:13;;;;;;;;;52.25;44.50;;;;;2.06;68.43;101710.53;5057891;28;45323;-56
2021/12/22 04:22:38;;;;;;;;;43.00;33.50;;;;;2.02;67.51;101695.69;5066278;28;46797;-56
2021/12/22 04:25:06;;;;;;;;;48.75;39.00;;;;;1.97;67.43;101700.09;5075803;28;45173;-53
2021/12/22 04:27:31;;;;;;;;;38.50;34.50;;;;;1.90;67.19;101700.97;5075472;28;45411;-53
2021/12/22 04:29:57;;;;;;;;;33.75;33.75;;;;;1.85;67.12;101710.63;5074505;28;45532;-53
2021/12/22 04:32:22;;;;;;;;;37.75;31.25;;;;;1.84;67.59;101714.13;5056882;28;47031;-52
2021/12/22 04:34:48;;;;;;;;;41.00;35.25;;;;;1.84;67.27;101714.13;5075112;28;46420;-59
2021/12/22 04:37:14;;;;;;;;;39.00;30.25;;;;;1.84;67.21;101714.13;5075991;28;45475;-53
2021/12/22 04:39:39;;;;;;;;;44.00;36.75;;;;;1.80;66.51;101717.59;5075847;28;45501;-50
2021/12/22 04:42:05;;;;;;;;;52.00;36.00;;;;;1.79;66.54;101724.59;5074767;28;45537;-52
2021/12/22 04:44:30;;;;;;;;;35.50;29.50;;;;;1.81;66.44;101720.22;5075016;28;45442;-50
2021/12/22 04:46:56;;;;;;;;;36.00;30.75;;;;;1.86;66.49;101720.22;5074991;28;45479;-54
2021/12/22 04:49:21;;;;;;;;;35.25;30.50;;;;;1.91;67.28;101721.06;5074350;28;45455;-54
2021/12/22 04:51:52;;;;;;;;;46.25;34.50;;;;;1.88;66.23;101721.09;5054226;28;46567;-53
2021/12/22 04:56:53;;;;;;;;;55.50;36.25;;;;;1.76;67.32;101728.09;5073629;28;45452;-54
2021/12/22 04:59:18;;;;;;;;;50.00;36.50;;;;;1.75;66.92;101721.13;5057106;28;46391;-55
2021/12/22 05:01:44;;;;;;;;;37.75;30.00;;;;;1.76;66.82;101733.34;5072571;28;45485;-51
2021/12/22 05:04:10;;;;;;;;;39.75;34.00;;;;;1.70;66.98;101730.75;5075012;28;45449;-54
2021/12/22 05:06:35;;;;;;;;;39.75;30.00;;;;;1.63;67.35;101729.00;5056424;28;45505;-56
2021/12/22 05:09:03;;;;;;;;;37.00;32.50;;;;;1.60;67.13;101726.38;5057082;28;45596;-57
2021/12/22 05:11:28;;;;;;;;;35.25;33.00;;;;;1.57;67.69;101720.28;5073456;28;45446;-55
2021/12/22 05:13:56;;;;;;;;;36.50;33.75;;;;;1.57;67.00;101707.16;5074890;28;45353;-50
2021/12/22 05:16:22;;;;;;;;;47.00;37.25;;;;;1.55;66.87;101701.91;5074887;28;45469;-54
2021/12/22 05:18:51;;;;;;;;;37.25;33.25;;;;;1.57;67.87;101694.06;5075003;28;45335;-54
2021/12/22 05:21:21;;;;;;;;;43.50;39.25;;;;;1.58;67.62;101691.44;5073538;28;46179;-54
2021/12/22 05:23:53;;;;;;;;;36.75;35.50;;;;;1.64;67.12;101688.78;5072567;28;45500;-51
2021/12/22 05:26:20;;;;;;;;;41.00;33.00;;;;;1.67;67.35;101690.53;5076051;28;45268;-52
2021/12/22 05:28:47;;;;;;;;;54.00;38.00;;;;;1.69;67.50;101688.75;5078502;28;45390;-56
2021/12/22 05:31:12;;;;;;;;;49.00;35.50;;;;;1.66;67.66;101692.28;5077249;28;47078;-54
2021/12/22 05:33:37;;;;;;;;;42.50;37.50;;;;;1.64;67.26;101699.28;5078031;28;45505;-57
2021/12/22 05:36:04;;;;;;;;;46.75;33.25;;;;;1.69;67.06;101694.91;5078007;28;45854;-55
2021/12/22 05:38:29;;;;;;;;;55.00;37.50;;;;;1.67;67.40;101696.63;5068760;28;45488;-55
2021/12/22 05:40:54;;;;;;;;;49.50;42.50;;;;;1.70;67.66;101701.91;5077734;28;46081;-55
2021/12/22 05:43:20;;;;;;;;;41.50;35.00;;;;;1.74;67.61;101703.63;5077899;28;45318;-57
2021/12/22 05:45:45;;;;;;;;;38.75;34.25;;;;;1.76;67.52;101695.75;5078422;28;45214;-55
2021/12/22 05:48:11;;;;;;;;;38.00;38.00;;;;;1.80;67.82;101694.00;5077785;28;45468;-53
2021/12/22 05:50:36;;;;;;;;;45.25;35.50;;;;;1.87;66.92;101703.59;5059336;28;46733;-59
2021/12/22 05:53:03;;;;;;;;;42.00;37.25;;;;;1.89;66.85;101705.34;5057862;28;45352;-51
2021/12/22 05:55:28;;;;;;;;;41.00;35.75;;;;;1.84;67.44;101698.38;5077796;28;45414;-57
2021/12/22 05:57:54;;;;;;;;;46.75;33.00;;;;;1.87;66.91;101699.22;5078078;28;45244;-52
2021/12/22 06:00:22;;;;;;;;;53.50;34.50;;;;;1.85;67.39;101700.13;5077236;28;46589;-57
2021/12/22 06:02:47;;;;;;;;;45.00;37.00;;;;;1.88;67.15;101715.84;5077886;28;45313;-54
2021/12/22 06:05:13;;;;;;;;;55.25;45.00;;;;;1.82;67.67;101718.47;5051013;28;45342;-53
2021/12/22 06:07:38;;;;;;;;;47.50;36.00;;;;;1.84;67.25;101728.09;5077758;28;45473;-55
2021/12/22 06:10:06;;;;;;;;;43.75;36.50;;;;;1.84;67.30;101724.59;5077557;28;46496;-55
2021/12/22 06:12:31;;;;;;;;;34.50;29.50;;;;;1.87;67.14;101724.59;5058131;28;45574;-51
2021/12/22 06:14:57;;;;;;;;;40.50;37.50;;;;;1.89;67.34;101712.34;5077524;28;45415;-50
2021/12/22 06:17:23;;;;;;;;;41.25;33.25;;;;;1.88;66.81;101711.47;5058318;28;45505;-55
2021/12/22 06:19:48;;;;;;;;;43.00;34.00;;;;;1.86;67.39;101714.97;5076842;28;46119;-51
2021/12/22 06:22:13;;;;;;;;;38.50;35.75;;;;;1.78;66.47;101718.47;5075608;28;45497;-55
2021/12/22 06:24:39;;;;;;;;;49.25;37.50;;;;;1.73;67.17;101715.00;5077148;28;45427;-57
2021/12/22 06:27:04;;;;;;;;;52.00;39.25;;;;;1.66;66.86;101718.50;5074761;28;45524;-57
2021/12/22 06:29:30;;;;;;;;;35.00;30.00;;;;;1.58;67.81;101712.41;5077475;28;45373;-53
2021/12/22 06:31:55;;;;;;;;;42.75;35.50;;;;;1.54;67.04;101709.78;5077226;28;45441;-53
2021/12/22 06:34:20;;;;;;;;;42.50;36.00;;;;;1.52;67.13;101712.41;5058807;28;45281;-53
2021/12/22 06:36:46;;;;;;;;;41.50;36.50;;;;;1.46;67.58;101699.31;5076520;28;45581;-57
2021/12/22 06:39:13;;;;;;;;;38.50;29.00;;;;;1.58;66.98;101716.78;5076832;28;46185;-58
2021/12/22 06:41:38;;;;;;;;;40.50;33.00;;;;;1.58;67.42;101709.78;5076735;28;45284;-53
2021/12/22 06:44:05;;;;;;;;;52.00;38.75;;;;;1.57;67.46;101715.91;5076980;28;45339;-59
2021/12/22 06:46:31;;;;;;;;;49.00;39.50;;;;;1.51;67.15;101715.91;5077070;28;45319;-53
2021/12/22 06:48:57;;;;;;;;;40.50;35.75;;;;;1.46;67.32;101725.53;5058517;28;45535;-56
2021/12/22 06:51:22;;;;;;;;;42.50;29.75;;;;;1.48;67.10;101732.50;5058531;28;45356;-52
2021/12/22 06:53:47;;;;;;;;;44.50;39.00;;;;;1.50;67.34;101743.00;5077450;28;45611;-54
2021/12/22 06:56:13;;;;;;;;;43.00;35.75;;;;;1.45;66.61;101736.88;5077101;28;45240;-55
2021/12/22 06:58:38;;;;;;;;;43.00;33.00;;;;;1.34;66.86;101722.91;5076354;28;45319;-57
2021/12/22 07:01:04;;;;;;;;;47.00;39.50;;;;;1.36;66.82;101736.88;5076552;28;45430;-56
2021/12/22 07:03:29;;;;;;;;;51.75;36.25;;;;;1.34;67.38;101720.28;5076258;28;45311;-54
2021/12/22 07:05:55;;;;;;;;;40.00;33.25;;;;;1.37;67.09;101722.91;5076550;28;45257;-55
2021/12/22 07:08:21;;;;;;;;;22.75;20.00;;;;;1.34;67.51;101717.66;5076729;28;45551;-55
2021/12/22 07:10:46;;;;;;;;;38.25;34.75;;;;;1.38;66.93;101722.91;5076263;28;45468;-54
2021/12/22 07:13:14;;;;;;;;;47.00;35.00;;;;;1.29;67.60;101698.44;5058278;28;45429;-54
2021/12/22 07:15:40;;;;;;;;;49.00;37.00;;;;;1.41;67.76;101714.16;5076620;28;45624;-55
2021/12/22 07:18:08;;;;;;;;;50.25;39.25;;;;;1.45;67.78;101711.53;5055233;28;47515;-55
2021/12/22 07:20:34;;;;;;;;;47.50;36.00;;;;;1.42;67.45;101714.16;5076114;28;45476;-58
2021/12/22 07:23:00;;;;;;;;;37.75;33.25;;;;;1.39;67.67;101723.75;5076217;28;45293;-57
2021/12/22 07:25:26;;;;;;;;;42.25;30.25;;;;;1.43;67.07;101712.41;5076533;28;45627;-56
2021/12/22 07:27:51;;;;;;;;;47.50;38.50;;;;;1.36;67.38;101715.91;5056638;28;46064;-55
2021/12/22 07:30:16;;;;;;;;;51.00;38.50;;;;;1.32;67.77;101714.19;5076065;28;45421;-57
2021/12/22 07:32:42;;;;;;;;;47.50;45.00;;;;;1.37;67.47;101728.13;5076140;28;45704;-52
2021/12/22 07:35:18;;;;;;;;;44.50;37.25;;;;;1.32;67.74;101722.91;5076358;28;45394;-56
2021/12/22 07:37:56;;;;;;;;;46.75;35.25;;;;;1.29;67.70;101728.13;5075830;28;45471;-54
2021/12/22 07:40:21;;;;;;;;;42.00;38.00;;;;;1.23;67.63;101707.19;5075921;28;45409;-53
2021/12/22 07:42:47;;;;;;;;;55.25;43.00;;;;;1.31;67.39;101717.69;5075826;28;45226;-55
2021/12/22 07:45:12;;;;;;;;;35.50;30.75;;;;;1.29;67.47;101719.41;5076120;28;45351;-55
2021/12/22 07:47:39;;;;;;;;;34.50;27.25;;;;;1.28;68.15;101717.66;5075513;28;45423;-56
2021/12/22 07:50:06;;;;;;;;;49.50;36.25;;;;;1.23;67.38;101724.66;5056988;28;45838;-55
2021/12/22 07:52:32;;;;;;;;;42.00;39.00;;;;;1.28;67.70;101717.66;5057671;28;45478;-53
2021/12/22 07:54:59;;;;;;;;;45.50;41.75;;;;;1.27;67.69;101718.53;5076316;28;45294;-55
2021/12/22 07:57:24;;;;;;;;;37.50;33.50;;;;;1.24;67.28;101722.03;5071460;28;45597;-50
2021/12/22 07:59:50;;;;;;;;;58.25;44.00;;;;;1.22;67.64;101728.16;5071349;28;45606;-57
2021/12/22 08:02:16;;;;;;;;;39.75;36.50;;;;;1.21;67.92;101732.50;5039753;28;45509;-50
2021/12/22 08:04:42;;;;;;;;;47.50;36.50;;;;;1.20;68.35;101728.16;5075413;28;45601;-50
2021/12/22 08:07:08;;;;;;;;;57.00;45.00;;;;;1.21;67.88;101740.38;5054716;28;46173;-53
2021/12/22 08:09:34;;;;;;;;;59.25;43.00;;;;;1.24;68.22;101749.97;5057463;28;45403;-55
2021/12/22 08:12:04;;;;;;;;;45.25;34.00;;;;;1.27;67.64;101736.88;5076003;28;45408;-50
2021/12/22 08:14:34;;;;;;;;;45.00;39.00;;;;;1.30;67.71;101734.25;5066511;28;45439;-52
2021/12/22 08:17:00;;;;;;;;;57.00;40.00;;;;;1.29;67.56;101730.75;5055287;28;45412;-57
2021/12/22 08:19:25;;;;;;;;;47.25;41.50;;;;;1.25;67.98;101722.91;5055698;28;45441;-56
2021/12/22 08:21:51;;;;;;;;;40.00;30.25;;;;;1.28;67.39;101718.53;5055845;28;45430;-55
2021/12/22 08:24:17;;;;;;;;;46.75;44.00;;;;;1.27;68.50;101726.38;5055468;28;45552;-55
2021/12/22 08:26:42;;;;;;;;;42.75;36.25;;;;;1.31;67.86;101722.91;5054842;28;46033;-53
2021/12/22 08:29:08;;;;;;;;;47.25;37.25;;;;;1.40;67.94;101712.41;5054829;28;45521;-52
2021/12/22 08:31:39;;;;;;;;;47.50;29.50;;;;;1.38;67.85;101708.91;5071654;28;45330;-58
2021/12/22 08:34:06;;;;;;;;;44.00;37.25;;;;;1.33;67.48;101711.56;5075398;28;45383;-52
2021/12/22 08:39:19;;;;;;;;;61.00;44.25;;;;;1.48;67.58;101721.16;5072025;28;45374;-56
2021/12/22 08:41:47;;;;;;;;;46.25;36.25;;;;;1.52;67.61;101722.88;5074642;28;45444;-57
2021/12/22 08:44:17;;;;;;;;;51.25;39.50;;;;;1.47;67.42;101708.91;5074540;28;45509;-53
2021/12/22 08:46:48;;;;;;;;;48.50;36.75;;;;;1.52;68.01;101715.03;5073097;27;46220;-52
2021/12/22 08:49:14;;;;;;;;;53.00;38.75;;;;;1.55;67.15;101711.50;5072444;28;45251;-55
2021/12/22 08:51:40;;;;;;;;;48.50;39.00;;;;;1.53;67.60;101706.28;5069907;28;45424;-53
2021/12/22 08:54:06;;;;;;;;;48.25;39.00;;;;;1.55;67.58;101711.50;5074386;28;45659;-61
2021/12/22 08:56:32;;;;;;;;;52.00;44.50;;;;;1.57;66.57;101705.41;5073950;28;45425;-59
2021/12/22 08:58:58;;;;;;;;;40.50;37.50;;;;;1.53;67.27;101703.66;5071587;28;45474;-50
2021/12/22 09:01:25;;;;;;;;;30.50;30.50;;;;;1.51;67.06;101701.91;5054911;28;45247;-54
2021/12/22 09:03:51;;;;;;;;;60.25;43.75;;;;;1.54;67.47;101694.03;5058350;28;45382;-53
2021/12/22 09:06:17;;;;;;;;;44.25;38.75;;;;;1.58;66.95;101707.16;5057947;28;45936;-56
2021/12/22 09:08:44;;;;;;;;;56.50;38.00;;;;;1.58;67.37;101701.91;5058447;28;45358;-56
2021/12/22 09:11:11;;;;;;;;;46.25;35.00;;;;;1.60;67.37;101700.16;5058105;28;45452;-55
2021/12/22 09:13:39;;;;;;;;;49.50;41.25;;;;;1.63;67.58;101705.41;5074644;28;46536;-58
2021/12/22 09:16:06;;;;;;;;;54.25;42.75;;;;;1.61;66.67;101701.03;5050115;28;46827;-57
2021/12/22 09:18:33;;;;;;;;;52.50;36.75;;;;;1.62;66.80;101694.91;5075810;28;45430;-56
2021/12/22 09:20:58;;;;;;;;;38.50;32.00;;;;;1.63;67.25;101688.78;5042384;28;45486;-58
2021/12/22 09:23:24;;;;;;;;;47.25;42.00;;;;;1.65;66.42;101693.16;5078071;28;45425;-62
2021/12/22 09:25:50;;;;;;;;;49.50;35.00;;;;;1.67;66.68;101696.63;5077227;28;46135;-60
2021/12/22 09:28:15;;;;;;;;;54.00;46.50;;;;;1.73;66.60;101699.25;5077629;28;45326;-60
2021/12/22 09:30:43;;;;;;;;;52.75;39.75;;;;;1.76;66.82;101696.63;5056346;28;45446;-60
2021/12/22 09:33:14;;;;;;;;;51.25;39.50;;;;;1.91;67.00;101700.09;5077935;28;45824;-63
2021/12/22 09:35:40;;;;;;;;;59.25;48.25;;;;;1.94;66.73;101685.19;5058860;28;47695;-60
2021/12/22 09:38:07;;;;;;;;;57.25;46.75;;;;;2.00;66.18;101689.56;5077210;28;45497;-59
2021/12/22 09:40:33;;;;;;;;;47.75;43.75;;;;;2.03;66.58;101700.06;5077685;28;45422;-60
2021/12/22 09:42:59;;;;;;;;;49.00;38.25;;;;;2.05;66.91;101707.03;5057394;28;45507;-60
2021/12/22 09:45:26;;;;;;;;;47.75;43.50;;;;;1.99;66.44;101693.94;5075758;27;45441;-62
2021/12/22 09:50:46;;;;;;;;;51.75;42.25;;;;;2.05;66.48;101693.03;5075207;28;45342;-63
2021/12/22 09:53:14;;;;;;;;;54.00;44.00;;;;;2.21;65.73;101709.59;5075089;28;45381;-62
2021/12/22 09:55:40;;;;;;;;;43.25;38.50;;;;;2.23;65.33;101710.50;5077184;28;46227;-64
2021/12/22 09:58:09;;;;;;;;;57.00;44.50;;;;;2.24;65.51;101710.47;5076263;28;45383;-60
2021/12/22 10:00:36;;;;;;;;;50.75;40.00;;;;;2.22;65.26;101714.88;5076731;28;45743;-62
2021/12/22 10:03:03;;;;;;;;;52.50;46.00;;;;;2.24;64.95;101710.47;5077385;28;45381;-54
2021/12/22 10:05:28;;;;;;;;;57.75;46.75;;;;;2.20;65.45;101710.47;5069767;27;45951;-57
2021/12/22 10:08:10;;;;;;;;;42.75;35.50;;;;;2.28;64.17;101722.72;5077345;28;45416;-52
2021/12/22 10:10:40;;;;;;;;;51.75;42.25;;;;;2.31;64.42;101712.19;5077818;28;45512;-54
2021/12/22 10:13:17;;;;;;;;;45.00;42.50;;;;;2.29;64.69;101706.06;5073912;28;45536;-56
2021/12/22 10:15:44;;;;;;;;;51.25;43.50;;;;;2.41;64.92;101709.53;5077083;28;47044;-55
2021/12/22 10:18:22;;;;;;;;;50.50;40.50;;;;;2.35;64.54;101713.94;5077080;28;45490;-53
2021/12/22 10:20:51;;;;;;;;;53.25;41.50;;;;;2.38;64.77;101718.31;5076514;28;45543;-54
2021/12/22 10:23:24;;;;;;;;;47.75;42.00;;;;;2.32;64.91;101713.06;5073436;28;45556;-57
2021/12/22 10:25:51;;;;;;;;;50.50;44.50;;;;;2.29;65.39;101708.69;5075811;28;45367;-54
2021/12/22 10:28:19;;;;;;;;;58.75;44.00;;;;;2.29;65.20;101713.94;5074915;28;45483;-53
2021/12/22 10:30:47;;;;;;;;;38.50;32.00;;;;;2.36;64.62;101715.69;5076773;28;45425;-53
2021/12/22 10:33:21;;;;;;;;;55.25;45.25;;;;;2.46;64.52;101715.63;5076988;28;45299;-64
2021/12/22 10:35:52;;;;;;;;;46.50;39.50;;;;;2.49;63.92;101702.50;5074359;28;46130;-58
2021/12/22 10:38:21;;;;;;;;;64.00;48.00;;;;;2.52;64.31;101702.47;5058155;28;45403;-52
2021/12/22 10:40:49;;;;;;;;;54.50;47.50;;;;;2.61;63.81;101700.69;5076975;28;45417;-60
2021/12/22 10:43:21;;;;;;;;;53.50;43.50;;;;;2.64;63.70;101694.53;5040275;28;45466;-56
2021/12/22 10:45:52;;;;;;;;;54.25;44.25;;;;;2.67;64.34;101684.88;5056205;28;45460;-62
2021/12/22 10:51:30;;;;;;;;;64.75;44.75;;;;;2.80;63.96;101671.66;5073690;28;45445;-63
2021/12/22 10:53:56;;;;;;;;;53.75;36.50;;;;;2.77;63.63;101654.16;5075517;28;45485;-58
2021/12/22 10:56:29;;;;;;;;;45.50;45.00;;;;;2.75;63.39;101642.81;5075479;27;45470;-56
2021/12/22 10:59:00;;;;;;;;;60.75;46.75;;;;;2.74;63.36;101650.69;5075880;28;45410;-53
2021/12/22 11:01:26;;;;;;;;;54.50;40.50;;;;;2.72;63.18;101642.81;5076438;28;45557;-53
2021/12/22 11:04:00;;;;;;;;;45.75;42.50;;;;;2.84;62.67;101640.09;5074473;28;45272;-60
2021/12/22 11:06:29;;;;;;;;;62.25;43.00;;;;;2.86;62.87;101643.56;5073399;28;45519;-58
2021/12/22 11:09:08;;;;;;;;;61.75;47.00;;;;;2.82;62.71;101639.22;5073582;28;45507;-59
2021/12/22 11:11:38;;;;;;;;;43.00;40.50;;;;;2.84;62.96;101633.97;5056119;28;45391;-59
2021/12/22 11:14:09;;;;;;;;;56.75;44.75;;;;;2.81;62.58;101634.88;5076568;28;46463;-58
2021/12/22 11:16:57;;;;;;;;;53.25;43.50;;;;;2.81;62.73;101629.63;5076161;28;46313;-57
2021/12/22 11:19:26;;;;;;;;;55.00;45.50;;;;;2.83;62.61;101637.47;5068114;28;45631;-57
2021/12/22 11:22:10;;;;;;;;;56.00;49.25;;;;;2.83;63.17;101626.97;5074710;28;45479;-56
2021/12/22 11:24:39;;;;;;;;;43.75;40.50;;;;;2.91;63.39;101626.03;5047721;28;45323;-58
2021/12/22 11:27:07;;;;;;;;;56.75;45.00;;;;;2.86;62.96;101601.53;5075477;28;46259;-55
2021/12/22 11:29:34;;;;;;;;;63.25;45.25;;;;;2.98;62.79;101608.44;5076279;28;45189;-61
2021/12/22 11:32:03;;;;;;;;;58.50;45.75;;;;;3.03;62.97;101617.19;5055608;28;45319;-56
2021/12/22 11:34:30;;;;;;;;;53.25;43.75;;;;;3.01;62.78;101615.47;5058543;28;45708;-60
2021/12/22 11:36:56;;;;;;;;;53.25;47.50;;;;;3.03;62.46;101611.06;5073124;28;45940;-58
2021/12/22 11:39:22;;;;;;;;;62.75;47.75;;;;;3.03;62.82;101611.06;5058061;28;45473;-61
2021/12/22 11:41:56;;;;;;;;;71.75;53.00;;;;;3.03;62.89;101603.16;5076031;28;45441;-58